Terminal Aerodrome Forecast
Issued by NWS Paducah, KY

Home | Current Version | Previous Version | Text Only | Print | Product List | Glossary Off
Versions: 1 2 3 4 5 6 7 8 9 10 11 12 13 14 15 16 17 18 19 20 21 22 23 24 25 26 27 28

575
FTUS43 KPAH 161415 AAD
TAFPAH
TAF AMD
KPAH 161415Z 1614/1712 08004KT 2SM BR OVC002
      TEMPO 1614/1617 1/2SM -SHRA FG OVC005
     FM161700 17009KT 2SM -SHRA BR OVC005
     FM162300 17012KT 3SM -SHRA BR VCTS OVC010CB
      TEMPO 1701/1705 2SM -TSRA BR OVC008CB
     FM170900 23010KT 4SM BR OVC012=

USA.gov is the U.S. government's official web portal to all federal, state and local government web resources and services.